sensor_id;sensor_type;location;lat;lon;timestamp;pressure;altitude;pressure_sealevel;temperature
77414;BMP280;66486;49.992;19.164;2023-06-10T00:01:48;98581.72;;;19.87
77414;BMP280;66486;49.992;19.164;2023-06-10T00:04:15;98568.09;;;19.93
77414;BMP280;66486;49.992;19.164;2023-06-10T00:06:45;98584.44;;;19.87
77414;BMP280;66486;49.992;19.164;2023-06-10T00:09:15;98573.44;;;19.82
77414;BMP280;66486;49.992;19.164;2023-06-10T00:11:42;98574.91;;;19.77
77414;BMP280;66486;49.992;19.164;2023-06-10T00:14:08;98581.63;;;19.76
77414;BMP280;66486;49.992;19.164;2023-06-10T00:16:34;98576.88;;;19.77
77414;BMP280;66486;49.992;19.164;2023-06-10T00:19:02;98586.56;;;19.78
77414;BMP280;66486;49.992;19.164;2023-06-10T00:21:33;98587.56;;;19.75
77414;BMP280;66486;49.992;19.164;2023-06-10T00:24:06;98583.31;;;19.74
77414;BMP280;66486;49.992;19.164;2023-06-10T00:26:33;98581.13;;;19.78
77414;BMP280;66486;49.992;19.164;2023-06-10T00:28:59;98582.66;;;19.84
77414;BMP280;66486;49.992;19.164;2023-06-10T00:31:25;98579.91;;;19.79
77414;BMP280;66486;49.992;19.164;2023-06-10T00:33:52;98585.59;;;19.75
77414;BMP280;66486;49.992;19.164;2023-06-10T00:36:18;98585.59;;;19.75
77414;BMP280;66486;49.992;19.164;2023-06-10T00:38:44;98579.59;;;19.71
77414;BMP280;66486;49.992;19.164;2023-06-10T00:41:10;98579.53;;;19.66
77414;BMP280;66486;49.992;19.164;2023-06-10T00:43:36;98581.75;;;19.62
77414;BMP280;66486;49.992;19.164;2023-06-10T00:46:02;98591.47;;;19.68
77414;BMP280;66486;49.992;19.164;2023-06-10T00:48:28;98581.31;;;19.69
77414;BMP280;66486;49.992;19.164;2023-06-10T00:50:55;98597.69;;;19.69
77414;BMP280;66486;49.992;19.164;2023-06-10T00:53:21;98587.00;;;19.65
77414;BMP280;66486;49.992;19.164;2023-06-10T00:55:48;98598.38;;;19.58
77414;BMP280;66486;49.992;19.164;2023-06-10T00:58:15;98603.06;;;19.58
77414;BMP280;66486;49.992;19.164;2023-06-10T01:00:41;98599.28;;;19.55
77414;BMP280;66486;49.992;19.164;2023-06-10T01:03:07;98598.03;;;19.50
77414;BMP280;66486;49.992;19.164;2023-06-10T01:05:37;98598.03;;;19.50
77414;BMP280;66486;49.992;19.164;2023-06-10T01:08:07;98601.72;;;19.47
77414;BMP280;66486;49.992;19.164;2023-06-10T01:10:43;98591.53;;;19.48
77414;BMP280;66486;49.992;19.164;2023-06-10T01:13:13;98601.47;;;19.45
77414;BMP280;66486;49.992;19.164;2023-06-10T01:15:41;98599.69;;;19.42
77414;BMP280;66486;49.992;19.164;2023-06-10T01:18:08;98598.75;;;19.45
77414;BMP280;66486;49.992;19.164;2023-06-10T01:20:37;98604.06;;;18.89
77414;BMP280;66486;49.992;19.164;2023-06-10T01:23:07;98602.38;;;18.91
77414;BMP280;66486;49.992;19.164;2023-06-10T01:25:36;98614.44;;;19.05
77414;BMP280;66486;49.992;19.164;2023-06-10T01:28:27;98612.03;;;19.12
77414;BMP280;66486;49.992;19.164;2023-06-10T01:31:22;98614.28;;;19.14
77414;BMP280;66486;49.992;19.164;2023-06-10T01:33:53;98614.50;;;19.10
77414;BMP280;66486;49.992;19.164;2023-06-10T01:36:21;98617.94;;;19.11
77414;BMP280;66486;49.992;19.164;2023-06-10T01:38:49;98618.78;;;19.17
77414;BMP280;66486;49.992;19.164;2023-06-10T01:41:17;98623.94;;;19.15
77414;BMP280;66486;49.992;19.164;2023-06-10T01:43:44;98625.31;;;19.25
77414;BMP280;66486;49.992;19.164;2023-06-10T01:46:10;98621.06;;;19.24
77414;BMP280;66486;49.992;19.164;2023-06-10T01:48:41;98625.75;;;19.18
77414;BMP280;66486;49.992;19.164;2023-06-10T01:51:07;98623.25;;;19.20
77414;BMP280;66486;49.992;19.164;2023-06-10T01:53:33;98617.56;;;19.18
77414;BMP280;66486;49.992;19.164;2023-06-10T01:55:59;98622.09;;;19.26
77414;BMP280;66486;49.992;19.164;2023-06-10T01:58:25;98609.00;;;19.30
77414;BMP280;66486;49.992;19.164;2023-06-10T02:00:51;98622.94;;;19.32
77414;BMP280;66486;49.992;19.164;2023-06-10T02:03:17;98612.47;;;19.05
77414;BMP280;66486;49.992;19.164;2023-06-10T02:05:44;98622.25;;;18.97
77414;BMP280;66486;49.992;19.164;2023-06-10T02:08:09;98615.63;;;19.04
77414;BMP280;66486;49.992;19.164;2023-06-10T02:10:36;98611.47;;;19.08
77414;BMP280;66486;49.992;19.164;2023-06-10T02:13:02;98617.56;;;19.18
77414;BMP280;66486;49.992;19.164;2023-06-10T02:15:28;98619.84;;;19.25
77414;BMP280;66486;49.992;19.164;2023-06-10T02:17:53;98614.06;;;19.17
77414;BMP280;66486;49.992;19.164;2023-06-10T02:20:20;98612.56;;;19.16
77414;BMP280;66486;49.992;19.164;2023-06-10T02:22:46;98619.53;;;19.17
77414;BMP280;66486;49.992;19.164;2023-06-10T02:25:12;98620.41;;;19.29
77414;BMP280;66486;49.992;19.164;2023-06-10T02:27:38;98618.91;;;19.08
77414;BMP280;66486;49.992;19.164;2023-06-10T02:30:04;98617.78;;;19.14
77414;BMP280;66486;49.992;19.164;2023-06-10T02:32:31;98621.78;;;19.19
77414;BMP280;66486;49.992;19.164;2023-06-10T02:34:56;98616.22;;;19.33
77414;BMP280;66486;49.992;19.164;2023-06-10T02:37:23;98613.25;;;19.37
77414;BMP280;66486;49.992;19.164;2023-06-10T02:39:49;98613.25;;;19.37
77414;BMP280;66486;49.992;19.164;2023-06-10T02:42:15;98613.06;;;19.40
77414;BMP280;66486;49.992;19.164;2023-06-10T02:44:41;98615.88;;;19.51
77414;BMP280;66486;49.992;19.164;2023-06-10T02:47:07;98615.84;;;19.46
77414;BMP280;66486;49.992;19.164;2023-06-10T02:49:33;98618.31;;;19.44
77414;BMP280;66486;49.992;19.164;2023-06-10T02:51:59;98612.53;;;19.36
77414;BMP280;66486;49.992;19.164;2023-06-10T02:54:25;98616.81;;;19.43
77414;BMP280;66486;49.992;19.164;2023-06-10T02:56:52;98618.03;;;19.42
77414;BMP280;66486;49.992;19.164;2023-06-10T02:59:18;98618.25;;;19.38
77414;BMP280;66486;49.992;19.164;2023-06-10T03:01:46;98618.53;;;19.40
77414;BMP280;66486;49.992;19.164;2023-06-10T03:04:12;98621.25;;;19.40
77414;BMP280;66486;49.992;19.164;2023-06-10T03:06:39;98617.97;;;19.36
77414;BMP280;66486;49.992;19.164;2023-06-10T03:09:06;98614.19;;;19.28
77414;BMP280;66486;49.992;19.164;2023-06-10T03:11:35;98615.16;;;19.25
77414;BMP280;66486;49.992;19.164;2023-06-10T03:14:01;98632.03;;;19.29
77414;BMP280;66486;49.992;19.164;2023-06-10T03:16:28;98622.94;;;19.38
77414;BMP280;66486;49.992;19.164;2023-06-10T03:18:55;98619.59;;;19.48
77414;BMP280;66486;49.992;19.164;2023-06-10T03:21:21;98622.63;;;19.56
77414;BMP280;66486;49.992;19.164;2023-06-10T03:23:47;98629.31;;;19.55
77414;BMP280;66486;49.992;19.164;2023-06-10T03:26:14;98637.94;;;19.48
77414;BMP280;66486;49.992;19.164;2023-06-10T03:28:41;98641.31;;;19.37
77414;BMP280;66486;49.992;19.164;2023-06-10T03:31:07;98646.56;;;19.41
77414;BMP280;66486;49.992;19.164;2023-06-10T03:33:33;98642.56;;;19.16
77414;BMP280;66486;49.992;19.164;2023-06-10T03:35:59;98656.22;;;18.96
77414;BMP280;66486;49.992;19.164;2023-06-10T03:38:25;98653.03;;;18.78
77414;BMP280;66486;49.992;19.164;2023-06-10T03:40:51;98650.28;;;18.98
77414;BMP280;66486;49.992;19.164;2023-06-10T03:43:17;98647.81;;;19.20
77414;BMP280;66486;49.992;19.164;2023-06-10T03:45:43;98658.44;;;19.38
77414;BMP280;66486;49.992;19.164;2023-06-10T03:48:09;98648.41;;;19.55
77414;BMP280;66486;49.992;19.164;2023-06-10T03:50:35;98647.50;;;19.58
77414;BMP280;66486;49.992;19.164;2023-06-10T03:53:04;98646.97;;;19.59
77414;BMP280;66486;49.992;19.164;2023-06-10T03:55:30;98646.53;;;19.61
77414;BMP280;66486;49.992;19.164;2023-06-10T03:57:56;98646.06;;;19.68
77414;BMP280;66486;49.992;19.164;2023-06-10T04:00:23;98646.66;;;19.52
77414;BMP280;66486;49.992;19.164;2023-06-10T04:02:50;98643.16;;;19.26
77414;BMP280;66486;49.992;19.164;2023-06-10T04:05:19;98641.66;;;18.99
77414;BMP280;66486;49.992;19.164;2023-06-10T04:07:48;98648.09;;;18.82
77414;BMP280;66486;49.992;19.164;2023-06-10T04:10:15;98649.16;;;18.49
77414;BMP280;66486;49.992;19.164;2023-06-10T04:12:41;98656.13;;;18.36
77414;BMP280;66486;49.992;19.164;2023-06-10T04:15:08;98662.00;;;18.49
77414;BMP280;66486;49.992;19.164;2023-06-10T04:17:34;98653.25;;;18.25
77414;BMP280;66486;49.992;19.164;2023-06-10T04:20:00;98662.38;;;17.93
77414;BMP280;66486;49.992;19.164;2023-06-10T04:22:26;98662.25;;;18.16
77414;BMP280;66486;49.992;19.164;2023-06-10T04:24:53;98664.25;;;18.30
77414;BMP280;66486;49.992;19.164;2023-06-10T04:27:18;98654.28;;;18.13
77414;BMP280;66486;49.992;19.164;2023-06-10T04:29:45;98666.06;;;18.04
77414;BMP280;66486;49.992;19.164;2023-06-10T04:32:11;98664.53;;;17.88
77414;BMP280;66486;49.992;19.164;2023-06-10T04:34:38;98665.75;;;18.02
77414;BMP280;66486;49.992;19.164;2023-06-10T04:37:06;98664.09;;;17.90
77414;BMP280;66486;49.992;19.164;2023-06-10T04:39:33;98664.09;;;17.90
77414;BMP280;66486;49.992;19.164;2023-06-10T04:41:59;98663.88;;;17.79
77414;BMP280;66486;49.992;19.164;2023-06-10T04:44:26;98657.50;;;17.82
77414;BMP280;66486;49.992;19.164;2023-06-10T04:46:52;98656.44;;;17.79
77414;BMP280;66486;49.992;19.164;2023-06-10T04:49:18;98657.97;;;17.80
77414;BMP280;66486;49.992;19.164;2023-06-10T04:51:44;98659.09;;;17.88
77414;BMP280;66486;49.992;19.164;2023-06-10T04:54:10;98660.50;;;17.99
77414;BMP280;66486;49.992;19.164;2023-06-10T04:56:36;98668.38;;;17.97
77414;BMP280;66486;49.992;19.164;2023-06-10T04:59:02;98667.25;;;18.03
77414;BMP280;66486;49.992;19.164;2023-06-10T05:01:28;98663.59;;;17.92
77414;BMP280;66486;49.992;19.164;2023-06-10T05:03:54;98677.41;;;18.17
77414;BMP280;66486;49.992;19.164;2023-06-10T05:06:20;98672.91;;;18.14
77414;BMP280;66486;49.992;19.164;2023-06-10T05:08:46;98665.56;;;17.91
77414;BMP280;66486;49.992;19.164;2023-06-10T05:11:12;98672.50;;;17.92
77414;BMP280;66486;49.992;19.164;2023-06-10T05:13:38;98665.28;;;18.18
77414;BMP280;66486;49.992;19.164;2023-06-10T05:16:05;98673.91;;;18.17
77414;BMP280;66486;49.992;19.164;2023-06-10T05:18:32;98669.97;;;18.18
77414;BMP280;66486;49.992;19.164;2023-06-10T05:20:58;98671.75;;;18.21
77414;BMP280;66486;49.992;19.164;2023-06-10T05:23:24;98666.59;;;18.23
77414;BMP280;66486;49.992;19.164;2023-06-10T05:25:50;98687.13;;;18.24
77414;BMP280;66486;49.992;19.164;2023-06-10T05:28:16;98675.03;;;18.25
77414;BMP280;66486;49.992;19.164;2023-06-10T05:30:42;98678.56;;;18.45
77414;BMP280;66486;49.992;19.164;2023-06-10T05:33:08;98680.09;;;18.46
77414;BMP280;66486;49.992;19.164;2023-06-10T05:35:34;98679.78;;;18.59
77414;BMP280;66486;49.992;19.164;2023-06-10T05:38:00;98680.75;;;18.56
77414;BMP280;66486;49.992;19.164;2023-06-10T05:40:26;98680.69;;;18.70
77414;BMP280;66486;49.992;19.164;2023-06-10T05:42:52;98674.88;;;18.63
77414;BMP280;66486;49.992;19.164;2023-06-10T05:45:18;98680.84;;;18.67
77414;BMP280;66486;49.992;19.164;2023-06-10T05:47:44;98688.47;;;18.98
77414;BMP280;66486;49.992;19.164;2023-06-10T05:50:10;98681.78;;;19.19
77414;BMP280;66486;49.992;19.164;2023-06-10T05:52:36;98682.03;;;19.41
77414;BMP280;66486;49.992;19.164;2023-06-10T05:55:03;98686.69;;;19.35
77414;BMP280;66486;49.992;19.164;2023-06-10T05:57:29;98689.63;;;19.31
77414;BMP280;66486;49.992;19.164;2023-06-10T05:59:55;98693.44;;;19.19
77414;BMP280;66486;49.992;19.164;2023-06-10T06:02:21;98690.03;;;19.24
77414;BMP280;66486;49.992;19.164;2023-06-10T06:04:47;98683.41;;;19.11
77414;BMP280;66486;49.992;19.164;2023-06-10T06:07:14;98692.22;;;19.20
77414;BMP280;66486;49.992;19.164;2023-06-10T06:09:40;98691.03;;;19.47
77414;BMP280;66486;49.992;19.164;2023-06-10T06:12:06;98691.09;;;19.52
77414;BMP280;66486;49.992;19.164;2023-06-10T06:14:37;98699.25;;;19.98
77414;BMP280;66486;49.992;19.164;2023-06-10T06:17:04;98703.56;;;20.41
77414;BMP280;66486;49.992;19.164;2023-06-10T06:19:29;98699.00;;;20.64
77414;BMP280;66486;49.992;19.164;2023-06-10T06:21:56;98698.00;;;20.67
77414;BMP280;66486;49.992;19.164;2023-06-10T06:24:21;98706.06;;;20.45
77414;BMP280;66486;49.992;19.164;2023-06-10T06:26:47;98706.63;;;20.23
77414;BMP280;66486;49.992;19.164;2023-06-10T06:29:13;98706.06;;;20.14
77414;BMP280;66486;49.992;19.164;2023-06-10T06:31:39;98710.66;;;19.97
77414;BMP280;66486;49.992;19.164;2023-06-10T06:34:05;98711.69;;;20.36
77414;BMP280;66486;49.992;19.164;2023-06-10T06:36:31;98711.91;;;20.32
77414;BMP280;66486;49.992;19.164;2023-06-10T06:38:57;98711.56;;;20.19
77414;BMP280;66486;49.992;19.164;2023-06-10T06:41:26;98714.88;;;20.29
77414;BMP280;66486;49.992;19.164;2023-06-10T06:43:53;98717.19;;;20.05
77414;BMP280;66486;49.992;19.164;2023-06-10T06:46:20;98717.78;;;20.51
77414;BMP280;66486;49.992;19.164;2023-06-10T06:48:47;98721.91;;;20.78
77414;BMP280;66486;49.992;19.164;2023-06-10T06:51:13;98726.25;;;20.53
77414;BMP280;66486;49.992;19.164;2023-06-10T06:53:39;98731.03;;;20.64
77414;BMP280;66486;49.992;19.164;2023-06-10T06:56:13;98733.59;;;20.78
77414;BMP280;66486;49.992;19.164;2023-06-10T06:58:39;98730.63;;;20.76
77414;BMP280;66486;49.992;19.164;2023-06-10T07:01:05;98720.06;;;21.00
77414;BMP280;66486;49.992;19.164;2023-06-10T07:03:31;98733.81;;;21.17
77414;BMP280;66486;49.992;19.164;2023-06-10T07:05:57;98732.97;;;21.05
77414;BMP280;66486;49.992;19.164;2023-06-10T07:08:25;98732.94;;;20.94
77414;BMP280;66486;49.992;19.164;2023-06-10T07:10:51;98739.25;;;20.69
77414;BMP280;66486;49.992;19.164;2023-06-10T07:13:17;98743.25;;;20.68
77414;BMP280;66486;49.992;19.164;2023-06-10T07:15:43;98740.50;;;20.68
77414;BMP280;66486;49.992;19.164;2023-06-10T07:18:08;98747.16;;;20.62
77414;BMP280;66486;49.992;19.164;2023-06-10T07:20:34;98743.25;;;20.68
77414;BMP280;66486;49.992;19.164;2023-06-10T07:23:00;98739.69;;;21.04
77414;BMP280;66486;49.992;19.164;2023-06-10T07:25:26;98749.75;;;21.29
77414;BMP280;66486;49.992;19.164;2023-06-10T07:27:52;98745.06;;;21.35
77414;BMP280;66486;49.992;19.164;2023-06-10T07:30:18;98745.84;;;21.53
77414;BMP280;66486;49.992;19.164;2023-06-10T07:32:44;98750.06;;;21.42
77414;BMP280;66486;49.992;19.164;2023-06-10T07:35:10;98751.59;;;21.60
77414;BMP280;66486;49.992;19.164;2023-06-10T07:37:37;98756.31;;;21.60
77414;BMP280;66486;49.992;19.164;2023-06-10T07:40:04;98753.41;;;21.91
77414;BMP280;66486;49.992;19.164;2023-06-10T07:42:32;98755.66;;;22.03
77414;BMP280;66486;49.992;19.164;2023-06-10T07:44:59;98751.16;;;22.22
77414;BMP280;66486;49.992;19.164;2023-06-10T07:47:24;98756.66;;;22.22
77414;BMP280;66486;49.992;19.164;2023-06-10T07:49:51;98756.41;;;22.31
77414;BMP280;66486;49.992;19.164;2023-06-10T07:52:16;98758.13;;;22.51
77414;BMP280;66486;49.992;19.164;2023-06-10T07:54:43;98766.22;;;22.95
77414;BMP280;66486;49.992;19.164;2023-06-10T07:57:08;98763.53;;;22.90
77414;BMP280;66486;49.992;19.164;2023-06-10T07:59:34;98759.31;;;22.78
77414;BMP280;66486;49.992;19.164;2023-06-10T08:02:00;98771.50;;;22.93
77414;BMP280;66486;49.992;19.164;2023-06-10T08:04:26;98765.97;;;22.99
77414;BMP280;66486;49.992;19.164;2023-06-10T08:06:52;98764.09;;;23.29
77414;BMP280;66486;49.992;19.164;2023-06-10T08:09:18;98765.22;;;22.98
77414;BMP280;66486;49.992;19.164;2023-06-10T08:11:47;98761.06;;;22.86
77414;BMP280;66486;49.992;19.164;2023-06-10T08:14:13;98768.56;;;22.75
77414;BMP280;66486;49.992;19.164;2023-06-10T08:16:39;98768.72;;;23.04
77414;BMP280;66486;49.992;19.164;2023-06-10T08:19:05;98766.69;;;23.10
77414;BMP280;66486;49.992;19.164;2023-06-10T08:21:31;98770.72;;;23.04
77414;BMP280;66486;49.992;19.164;2023-06-10T08:23:57;98761.53;;;22.85
77414;BMP280;66486;49.992;19.164;2023-06-10T08:26:23;98757.78;;;22.93
77414;BMP280;66486;49.992;19.164;2023-06-10T08:28:49;98769.63;;;23.23
77414;BMP280;66486;49.992;19.164;2023-06-10T08:31:15;98764.25;;;23.88
77414;BMP280;66486;49.992;19.164;2023-06-10T08:33:42;98774.50;;;23.82
77414;BMP280;66486;49.992;19.164;2023-06-10T08:36:08;98767.66;;;23.65
77414;BMP280;66486;49.992;19.164;2023-06-10T08:38:34;98770.03;;;23.85
77414;BMP280;66486;49.992;19.164;2023-06-10T08:41:00;98773.59;;;24.09
77414;BMP280;66486;49.992;19.164;2023-06-10T08:43:41;98780.28;;;23.84
77414;BMP280;66486;49.992;19.164;2023-06-10T08:46:09;98765.31;;;23.80
77414;BMP280;66486;49.992;19.164;2023-06-10T08:48:39;98779.63;;;24.32
77414;BMP280;66486;49.992;19.164;2023-06-10T08:51:09;98767.84;;;23.78
77414;BMP280;66486;49.992;19.164;2023-06-10T08:53:38;98770.81;;;23.80
77414;BMP280;66486;49.992;19.164;2023-06-10T08:56:09;98770.13;;;24.03
77414;BMP280;66486;49.992;19.164;2023-06-10T08:58:36;98769.88;;;24.31
77414;BMP280;66486;49.992;19.164;2023-06-10T09:01:08;98768.31;;;24.65
77414;BMP280;66486;49.992;19.164;2023-06-10T09:03:37;98775.97;;;24.48
77414;BMP280;66486;49.992;19.164;2023-06-10T09:06:05;98779.69;;;24.26
77414;BMP280;66486;49.992;19.164;2023-06-10T09:08:33;98768.25;;;24.17
77414;BMP280;66486;49.992;19.164;2023-06-10T09:11:00;98771.44;;;24.26
77414;BMP280;66486;49.992;19.164;2023-06-10T09:13:26;98774.22;;;24.21
77414;BMP280;66486;49.992;19.164;2023-06-10T09:15:52;98777.91;;;24.77
77414;BMP280;66486;49.992;19.164;2023-06-10T09:18:19;98760.34;;;25.23
77414;BMP280;66486;49.992;19.164;2023-06-10T09:20:45;98766.19;;;24.95
77414;BMP280;66486;49.992;19.164;2023-06-10T09:23:12;98768.00;;;25.30
77414;BMP280;66486;49.992;19.164;2023-06-10T09:25:39;98768.13;;;25.00
77414;BMP280;66486;49.992;19.164;2023-06-10T09:28:13;98769.09;;;24.60
77414;BMP280;66486;49.992;19.164;2023-06-10T09:30:39;98770.81;;;24.63
77414;BMP280;66486;49.992;19.164;2023-06-10T09:33:13;98772.75;;;24.92
77414;BMP280;66486;49.992;19.164;2023-06-10T09:35:48;98775.44;;;25.35
77414;BMP280;66486;49.992;19.164;2023-06-10T09:38:19;98779.63;;;25.41
77414;BMP280;66486;49.992;19.164;2023-06-10T09:40:53;98776.47;;;25.32
77414;BMP280;66486;49.992;19.164;2023-06-10T09:43:19;98776.03;;;25.46
77414;BMP280;66486;49.992;19.164;2023-06-10T09:45:50;98769.75;;;24.90
77414;BMP280;66486;49.992;19.164;2023-06-10T09:48:18;98771.78;;;25.08
77414;BMP280;66486;49.992;19.164;2023-06-10T09:50:45;98765.75;;;25.28
77414;BMP280;66486;49.992;19.164;2023-06-10T09:53:12;98772.31;;;25.44
77414;BMP280;66486;49.992;19.164;2023-06-10T09:55:39;98769.47;;;25.49
77414;BMP280;66486;49.992;19.164;2023-06-10T09:58:05;98764.97;;;25.65
77414;BMP280;66486;49.992;19.164;2023-06-10T10:00:34;98759.81;;;25.75
77414;BMP280;66486;49.992;19.164;2023-06-10T10:03:01;98758.41;;;26.00
77414;BMP280;66486;49.992;19.164;2023-06-10T10:05:27;98767.13;;;26.04
77414;BMP280;66486;49.992;19.164;2023-06-10T10:07:55;98749.53;;;26.59
77414;BMP280;66486;49.992;19.164;2023-06-10T10:10:22;98757.69;;;26.91
77414;BMP280;66486;49.992;19.164;2023-06-10T10:12:52;98765.59;;;26.47
77414;BMP280;66486;49.992;19.164;2023-06-10T10:15:21;98763.31;;;26.07
77414;BMP280;66486;49.992;19.164;2023-06-10T10:18:09;98758.84;;;26.30
77414;BMP280;66486;49.992;19.164;2023-06-10T10:20:44;98761.22;;;26.26
77414;BMP280;66486;49.992;19.164;2023-06-10T10:23:14;98765.47;;;26.53
77414;BMP280;66486;49.992;19.164;2023-06-10T10:25:49;98762.66;;;26.92
77414;BMP280;66486;49.992;19.164;2023-06-10T10:28:20;98744.47;;;27.30
77414;BMP280;66486;49.992;19.164;2023-06-10T10:30:54;98748.88;;;27.87
77414;BMP280;66486;49.992;19.164;2023-06-10T10:33:31;98750.47;;;28.32
77414;BMP280;66486;49.992;19.164;2023-06-10T10:35:59;98749.44;;;28.42
77414;BMP280;66486;49.992;19.164;2023-06-10T10:38:28;98742.88;;;27.55
77414;BMP280;66486;49.992;19.164;2023-06-10T10:40:55;98752.47;;;27.54
77414;BMP280;66486;49.992;19.164;2023-06-10T10:43:26;98749.19;;;27.02
77414;BMP280;66486;49.992;19.164;2023-06-10T10:46:02;98745.84;;;27.03
77414;BMP280;66486;49.992;19.164;2023-06-10T10:48:38;98741.69;;;26.76
77414;BMP280;66486;49.992;19.164;2023-06-10T10:51:04;98742.28;;;26.82
77414;BMP280;66486;49.992;19.164;2023-06-10T10:53:30;98733.47;;;26.84
77414;BMP280;66486;49.992;19.164;2023-06-10T10:58:34;98730.19;;;26.20
77414;BMP280;66486;49.992;19.164;2023-06-10T11:01:00;98729.44;;;25.93
77414;BMP280;66486;49.992;19.164;2023-06-10T11:03:42;98735.97;;;25.45
77414;BMP280;66486;49.992;19.164;2023-06-10T11:06:14;98733.03;;;24.64
77414;BMP280;66486;49.992;19.164;2023-06-10T11:11:26;98728.50;;;23.53
77414;BMP280;66486;49.992;19.164;2023-06-10T11:16:41;98739.16;;;22.59
77414;BMP280;66486;49.992;19.164;2023-06-10T11:19:08;98735.72;;;22.30
77414;BMP280;66486;49.992;19.164;2023-06-10T11:22:05;98737.69;;;21.97
77414;BMP280;66486;49.992;19.164;2023-06-10T11:24:31;98747.88;;;21.63
77414;BMP280;66486;49.992;19.164;2023-06-10T11:27:16;98761.22;;;21.28
77414;BMP280;66486;49.992;19.164;2023-06-10T11:32:30;98766.28;;;20.56
77414;BMP280;66486;49.992;19.164;2023-06-10T11:35:02;98758.56;;;20.55
77414;BMP280;66486;49.992;19.164;2023-06-10T11:37:29;98772.53;;;20.62
77414;BMP280;66486;49.992;19.164;2023-06-10T11:39:55;98767.06;;;21.04
77414;BMP280;66486;49.992;19.164;2023-06-10T11:42:22;98760.50;;;21.33
77414;BMP280;66486;49.992;19.164;2023-06-10T11:44:50;98759.34;;;21.67
77414;BMP280;66486;49.992;19.164;2023-06-10T11:47:17;98759.59;;;21.75
77414;BMP280;66486;49.992;19.164;2023-06-10T11:49:44;98755.63;;;21.87
77414;BMP280;66486;49.992;19.164;2023-06-10T11:52:11;98756.38;;;22.04
77414;BMP280;66486;49.992;19.164;2023-06-10T11:54:38;98758.09;;;21.68
77414;BMP280;66486;49.992;19.164;2023-06-10T11:57:04;98759.03;;;21.43
77414;BMP280;66486;49.992;19.164;2023-06-10T11:59:31;98759.16;;;21.17
77414;BMP280;66486;49.992;19.164;2023-06-10T12:01:58;98752.94;;;21.11
77414;BMP280;66486;49.992;19.164;2023-06-10T12:04:24;98746.91;;;21.02
77414;BMP280;66486;49.992;19.164;2023-06-10T12:06:53;98748.69;;;21.10
77414;BMP280;66486;49.992;19.164;2023-06-10T12:09:24;98745.34;;;20.90
77414;BMP280;66486;49.992;19.164;2023-06-10T12:11:57;98755.25;;;20.82
77414;BMP280;66486;49.992;19.164;2023-06-10T12:19:59;98741.44;;;20.96
77414;BMP280;66486;49.992;19.164;2023-06-10T12:22:26;98753.03;;;20.80
77414;BMP280;66486;49.992;19.164;2023-06-10T12:25:00;98750.78;;;20.79
77414;BMP280;66486;49.992;19.164;2023-06-10T12:27:27;98741.69;;;21.09
77414;BMP280;66486;49.992;19.164;2023-06-10T12:29:56;98751.25;;;21.30
77414;BMP280;66486;49.992;19.164;2023-06-10T12:32:39;98754.84;;;21.59
77414;BMP280;66486;49.992;19.164;2023-06-10T12:35:06;98756.78;;;21.36
77414;BMP280;66486;49.992;19.164;2023-06-10T12:37:32;98743.50;;;21.18
77414;BMP280;66486;49.992;19.164;2023-06-10T12:40:03;98759.72;;;21.38
77414;BMP280;66486;49.992;19.164;2023-06-10T12:42:30;98763.44;;;21.29
77414;BMP280;66486;49.992;19.164;2023-06-10T12:44:57;98762.31;;;21.69
77414;BMP280;66486;49.992;19.164;2023-06-10T12:47:31;98763.88;;;21.98
77414;BMP280;66486;49.992;19.164;2023-06-10T12:49:59;98764.38;;;22.07
77414;BMP280;66486;49.992;19.164;2023-06-10T12:52:25;98758.88;;;21.91
77414;BMP280;66486;49.992;19.164;2023-06-10T12:54:52;98764.84;;;21.89
77414;BMP280;66486;49.992;19.164;2023-06-10T12:57:18;98758.09;;;21.85
77414;BMP280;66486;49.992;19.164;2023-06-10T12:59:44;98774.09;;;21.92
77414;BMP280;66486;49.992;19.164;2023-06-10T13:02:16;98764.53;;;21.54
77414;BMP280;66486;49.992;19.164;2023-06-10T13:04:49;98767.53;;;21.62
77414;BMP280;66486;49.992;19.164;2023-06-10T13:07:15;98764.53;;;21.54
77414;BMP280;66486;49.992;19.164;2023-06-10T13:09:42;98763.03;;;21.53
77414;BMP280;66486;49.992;19.164;2023-06-10T13:12:08;98763.81;;;21.65
77414;BMP280;66486;49.992;19.164;2023-06-10T13:14:36;98762.59;;;21.71
77414;BMP280;66486;49.992;19.164;2023-06-10T13:17:05;98758.13;;;21.96
77414;BMP280;66486;49.992;19.164;2023-06-10T13:19:35;98747.16;;;21.79
77414;BMP280;66486;49.992;19.164;2023-06-10T13:22:01;98754.84;;;21.64
77414;BMP280;66486;49.992;19.164;2023-06-10T13:24:28;98749.63;;;21.61
77414;BMP280;66486;49.992;19.164;2023-06-10T13:26:54;98744.38;;;21.74
77414;BMP280;66486;49.992;19.164;2023-06-10T13:29:22;98748.91;;;22.04
77414;BMP280;66486;49.992;19.164;2023-06-10T13:31:47;98747.66;;;22.33
77414;BMP280;66486;49.992;19.164;2023-06-10T13:34:14;98745.69;;;22.39
77414;BMP280;66486;49.992;19.164;2023-06-10T13:36:40;98749.16;;;22.56
77414;BMP280;66486;49.992;19.164;2023-06-10T13:39:06;98742.66;;;22.59
77414;BMP280;66486;49.992;19.164;2023-06-10T13:41:31;98741.63;;;22.62
77414;BMP280;66486;49.992;19.164;2023-06-10T13:43:58;98743.84;;;22.86
77414;BMP280;66486;49.992;19.164;2023-06-10T13:46:23;98749.47;;;23.10
77414;BMP280;66486;49.992;19.164;2023-06-10T13:48:50;98735.72;;;23.10
77414;BMP280;66486;49.992;19.164;2023-06-10T13:51:15;98744.41;;;23.25
77414;BMP280;66486;49.992;19.164;2023-06-10T13:53:42;98736.84;;;23.36
77414;BMP280;66486;49.992;19.164;2023-06-10T13:56:08;98730.28;;;23.51
77414;BMP280;66486;49.992;19.164;2023-06-10T13:58:34;98736.47;;;23.57
77414;BMP280;66486;49.992;19.164;2023-06-10T14:01:05;98732.25;;;23.50
77414;BMP280;66486;49.992;19.164;2023-06-10T14:03:31;98730.66;;;23.30
77414;BMP280;66486;49.992;19.164;2023-06-10T14:05:57;98733.34;;;23.36
77414;BMP280;66486;49.992;19.164;2023-06-10T14:08:23;98723.19;;;23.25
77414;BMP280;66486;49.992;19.164;2023-06-10T14:10:49;98734.47;;;23.05
77414;BMP280;66486;49.992;19.164;2023-06-10T14:13:17;98739.47;;;23.59
77414;BMP280;66486;49.992;19.164;2023-06-10T14:15:43;98728.47;;;23.59